sensor_id;sensor_type;location;lat;lon;timestamp;temperature;humidity
1950;DHT22;975;48.760;9.152;2023-03-31T00:56:57;11.80;99.90
1950;DHT22;975;48.760;9.152;2023-03-31T00:59:50;11.50;99.90
1950;DHT22;975;48.760;9.152;2023-03-31T01:02:38;11.50;99.90
1950;DHT22;975;48.760;9.152;2023-03-31T01:05:29;11.50;99.90
1950;DHT22;975;48.760;9.152;2023-03-31T01:08:20;11.50;99.90
1950;DHT22;975;48.760;9.152;2023-03-31T01:11:12;11.50;99.90
1950;DHT22;975;48.760;9.152;2023-03-31T01:14:01;11.60;99.90
1950;DHT22;975;48.760;9.152;2023-03-31T01:16:49;11.60;99.90
1950;DHT22;975;48.760;9.152;2023-03-31T01:19:51;11.60;99.90
1950;DHT22;975;48.760;9.152;2023-03-31T01:23:11;11.60;99.90
1950;DHT22;975;48.760;9.152;2023-03-31T01:33:42;11.70;99.90
1950;DHT22;975;48.760;9.152;2023-03-31T01:37:12;11.70;99.90
1950;DHT22;975;48.760;9.152;2023-03-31T01:40:31;11.60;99.90
1950;DHT22;975;48.760;9.152;2023-03-31T01:43:32;11.60;99.90
1950;DHT22;975;48.760;9.152;2023-03-31T01:46:40;11.70;99.90
1950;DHT22;975;48.760;9.152;2023-03-31T01:49:46;11.70;99.90
1950;DHT22;975;48.760;9.152;2023-03-31T01:52:57;11.70;99.90
1950;DHT22;975;48.760;9.152;2023-03-31T01:55:51;11.70;99.90
1950;DHT22;975;48.760;9.152;2023-03-31T01:58:55;11.70;99.90
1950;DHT22;975;48.760;9.152;2023-03-31T02:01:55;11.80;99.90
1950;DHT22;975;48.760;9.152;2023-03-31T02:05:02;11.90;99.90
1950;DHT22;975;48.760;9.152;2023-03-31T02:08:09;11.90;99.90
1950;DHT22;975;48.760;9.152;2023-03-31T02:11:18;12.00;99.90
1950;DHT22;975;48.760;9.152;2023-03-31T02:14:11;12.00;99.90
1950;DHT22;975;48.760;9.152;2023-03-31T02:17:21;12.10;99.90
1950;DHT22;975;48.760;9.152;2023-03-31T02:20:27;12.30;99.90
1950;DHT22;975;48.760;9.152;2023-03-31T02:23:22;12.20;99.90
1950;DHT22;975;48.760;9.152;2023-03-31T02:26:26;12.10;99.90
1950;DHT22;975;48.760;9.152;2023-03-31T02:29:18;12.20;99.90
1950;DHT22;975;48.760;9.152;2023-03-31T02:32:20;12.20;99.90
1950;DHT22;975;48.760;9.152;2023-03-31T02:35:27;12.20;99.90
1950;DHT22;975;48.760;9.152;2023-03-31T02:38:21;12.10;99.90
1950;DHT22;975;48.760;9.152;2023-03-31T02:41:34;12.20;99.90
1950;DHT22;975;48.760;9.152;2023-03-31T02:44:46;12.20;99.90
1950;DHT22;975;48.760;9.152;2023-03-31T02:47:44;12.20;99.90
1950;DHT22;975;48.760;9.152;2023-03-31T02:54:07;12.20;99.90
1950;DHT22;975;48.760;9.152;2023-03-31T02:57:25;12.30;99.90
1950;DHT22;975;48.760;9.152;2023-03-31T03:00:40;12.40;99.90
1950;DHT22;975;48.760;9.152;2023-03-31T03:03:40;12.40;99.90
1950;DHT22;975;48.760;9.152;2023-03-31T03:06:49;12.40;99.90
1950;DHT22;975;48.760;9.152;2023-03-31T03:09:48;12.30;99.90
1950;DHT22;975;48.760;9.152;2023-03-31T03:12:57;12.30;99.90
1950;DHT22;975;48.760;9.152;2023-03-31T03:16:06;12.30;99.90
1950;DHT22;975;48.760;9.152;2023-03-31T03:18:57;12.20;99.90
1950;DHT22;975;48.760;9.152;2023-03-31T03:21:56;12.20;99.90
1950;DHT22;975;48.760;9.152;2023-03-31T03:24:46;12.10;99.90
1950;DHT22;975;48.760;9.152;2023-03-31T03:27:40;12.10;99.90
1950;DHT22;975;48.760;9.152;2023-03-31T03:30:34;12.00;99.90
1950;DHT22;975;48.760;9.152;2023-03-31T03:33:26;11.90;99.90
1950;DHT22;975;48.760;9.152;2023-03-31T03:36:17;11.90;99.90
1950;DHT22;975;48.760;9.152;2023-03-31T03:39:10;11.80;99.90
1950;DHT22;975;48.760;9.152;2023-03-31T03:41:59;11.80;99.90
1950;DHT22;975;48.760;9.152;2023-03-31T03:44:55;11.70;99.90
1950;DHT22;975;48.760;9.152;2023-03-31T03:47:48;11.60;99.90
1950;DHT22;975;48.760;9.152;2023-03-31T03:50:51;11.50;99.90
1950;DHT22;975;48.760;9.152;2023-03-31T03:53:41;11.50;99.90
1950;DHT22;975;48.760;9.152;2023-03-31T03:56:36;11.50;99.90
1950;DHT22;975;48.760;9.152;2023-03-31T03:59:31;11.40;99.90
1950;DHT22;975;48.760;9.152;2023-03-31T04:02:25;11.40;99.90
1950;DHT22;975;48.760;9.152;2023-03-31T04:05:25;11.40;99.90
1950;DHT22;975;48.760;9.152;2023-03-31T04:08:26;11.40;99.90
1950;DHT22;975;48.760;9.152;2023-03-31T04:11:30;11.40;99.90
1950;DHT22;975;48.760;9.152;2023-03-31T04:14:33;11.40;99.90
1950;DHT22;975;48.760;9.152;2023-03-31T04:17:23;11.30;99.90
1950;DHT22;975;48.760;9.152;2023-03-31T04:23:55;11.20;99.90
1950;DHT22;975;48.760;9.152;2023-03-31T04:26:49;11.20;99.90
1950;DHT22;975;48.760;9.152;2023-03-31T04:29:53;11.10;99.90
1950;DHT22;975;48.760;9.152;2023-03-31T04:33:05;11.20;99.90
1950;DHT22;975;48.760;9.152;2023-03-31T04:36:05;11.20;99.90
1950;DHT22;975;48.760;9.152;2023-03-31T04:39:03;11.30;99.90
1950;DHT22;975;48.760;9.152;2023-03-31T04:42:01;11.30;99.90
1950;DHT22;975;48.760;9.152;2023-03-31T04:47:53;11.20;99.90
1950;DHT22;975;48.760;9.152;2023-03-31T04:50:48;11.20;99.90
1950;DHT22;975;48.760;9.152;2023-03-31T04:53:38;11.20;99.90
1950;DHT22;975;48.760;9.152;2023-03-31T04:56:28;11.20;99.90
1950;DHT22;975;48.760;9.152;2023-03-31T04:59:15;11.30;99.90
1950;DHT22;975;48.760;9.152;2023-03-31T05:02:24;11.30;99.90
1950;DHT22;975;48.760;9.152;2023-03-31T05:05:31;11.30;99.90
1950;DHT22;975;48.760;9.152;2023-03-31T05:08:31;11.30;99.90
1950;DHT22;975;48.760;9.152;2023-03-31T05:11:37;11.30;99.90
1950;DHT22;975;48.760;9.152;2023-03-31T05:14:29;11.20;99.90
1950;DHT22;975;48.760;9.152;2023-03-31T05:17:19;11.20;99.90
1950;DHT22;975;48.760;9.152;2023-03-31T05:20:10;11.10;99.90
1950;DHT22;975;48.760;9.152;2023-03-31T05:23:00;11.10;99.90
1950;DHT22;975;48.760;9.152;2023-03-31T05:25:50;11.00;99.90
1950;DHT22;975;48.760;9.152;2023-03-31T05:28:43;10.90;99.90
1950;DHT22;975;48.760;9.152;2023-03-31T05:31:35;10.90;99.90
1950;DHT22;975;48.760;9.152;2023-03-31T05:34:29;10.90;99.90
1950;DHT22;975;48.760;9.152;2023-03-31T05:37:16;10.90;99.90
1950;DHT22;975;48.760;9.152;2023-03-31T05:40:05;10.90;99.90
1950;DHT22;975;48.760;9.152;2023-03-31T05:42:53;10.90;99.90
1950;DHT22;975;48.760;9.152;2023-03-31T05:45:42;10.90;99.90
1950;DHT22;975;48.760;9.152;2023-03-31T05:48:37;10.90;99.90
1950;DHT22;975;48.760;9.152;2023-03-31T05:51:24;11.00;99.90
1950;DHT22;975;48.760;9.152;2023-03-31T05:54:14;11.00;99.90
1950;DHT22;975;48.760;9.152;2023-03-31T05:57:07;11.00;99.90
1950;DHT22;975;48.760;9.152;2023-03-31T06:00:08;11.00;99.90
1950;DHT22;975;48.760;9.152;2023-03-31T06:03:10;11.00;99.90
1950;DHT22;975;48.760;9.152;2023-03-31T06:06:07;11.00;99.90
1950;DHT22;975;48.760;9.152;2023-03-31T06:09:00;11.00;99.90
1950;DHT22;975;48.760;9.152;2023-03-31T06:11:48;11.00;99.90
1950;DHT22;975;48.760;9.152;2023-03-31T06:14:39;11.00;99.90
1950;DHT22;975;48.760;9.152;2023-03-31T06:17:32;11.00;99.90
1950;DHT22;975;48.760;9.152;2023-03-31T06:20:50;11.00;99.90
1950;DHT22;975;48.760;9.152;2023-03-31T06:23:41;11.00;99.90
1950;DHT22;975;48.760;9.152;2023-03-31T06:26:36;11.00;99.90
1950;DHT22;975;48.760;9.152;2023-03-31T06:29:44;11.10;99.90
1950;DHT22;975;48.760;9.152;2023-03-31T06:32:37;11.10;99.90
1950;DHT22;975;48.760;9.152;2023-03-31T06:35:36;11.20;99.90
1950;DHT22;975;48.760;9.152;2023-03-31T06:38:33;11.20;99.90
1950;DHT22;975;48.760;9.152;2023-03-31T06:41:30;11.10;99.90
1950;DHT22;975;48.760;9.152;2023-03-31T06:44:22;11.10;99.90
1950;DHT22;975;48.760;9.152;2023-03-31T06:47:09;10.90;99.90
1950;DHT22;975;48.760;9.152;2023-03-31T06:49:57;10.80;99.90
1950;DHT22;975;48.760;9.152;2023-03-31T06:52:46;10.80;99.90
1950;DHT22;975;48.760;9.152;2023-03-31T06:55:39;10.70;99.90
1950;DHT22;975;48.760;9.152;2023-03-31T06:58:30;10.70;99.90
1950;DHT22;975;48.760;9.152;2023-03-31T07:01:17;10.60;99.90
1950;DHT22;975;48.760;9.152;2023-03-31T07:04:05;10.60;99.90
1950;DHT22;975;48.760;9.152;2023-03-31T07:06:52;10.60;99.90
1950;DHT22;975;48.760;9.152;2023-03-31T07:09:39;10.70;99.90
1950;DHT22;975;48.760;9.152;2023-03-31T09:25:47;10.50;99.90
1950;DHT22;975;48.760;9.152;2023-03-31T09:28:38;15.50;99.70
1950;DHT22;975;48.760;9.152;2023-03-31T09:31:26;15.50;98.40
1950;DHT22;975;48.760;9.152;2023-03-31T09:34:15;15.50;97.60
1950;DHT22;975;48.760;9.152;2023-03-31T09:37:05;15.40;97.90
1950;DHT22;975;48.760;9.152;2023-03-31T09:39:52;15.30;98.30
1950;DHT22;975;48.760;9.152;2023-03-31T09:42:40;15.30;98.40
1950;DHT22;975;48.760;9.152;2023-03-31T09:45:29;15.20;98.50
1950;DHT22;975;48.760;9.152;2023-03-31T09:48:20;15.10;99.00
1950;DHT22;975;48.760;9.152;2023-03-31T09:51:17;15.00;98.50
1950;DHT22;975;48.760;9.152;2023-03-31T09:54:12;15.10;98.00
1950;DHT22;975;48.760;9.152;2023-03-31T09:57:00;15.30;98.60
1950;DHT22;975;48.760;9.152;2023-03-31T09:59:50;15.60;97.70
1950;DHT22;975;48.760;9.152;2023-03-31T10:02:40;15.70;96.40
1950;DHT22;975;48.760;9.152;2023-03-31T10:05:32;15.60;96.50
1950;DHT22;975;48.760;9.152;2023-03-31T10:08:28;15.50;95.90
1950;DHT22;975;48.760;9.152;2023-03-31T10:11:16;15.70;95.40
1950;DHT22;975;48.760;9.152;2023-03-31T10:14:09;15.70;94.70
1950;DHT22;975;48.760;9.152;2023-03-31T10:17:03;15.70;94.70
1950;DHT22;975;48.760;9.152;2023-03-31T10:19:55;15.70;94.60
1950;DHT22;975;48.760;9.152;2023-03-31T10:22:43;15.80;95.70
1950;DHT22;975;48.760;9.152;2023-03-31T10:25:32;16.00;95.20
1950;DHT22;975;48.760;9.152;2023-03-31T10:28:20;16.20;93.40
1950;DHT22;975;48.760;9.152;2023-03-31T10:31:08;16.20;92.10
1950;DHT22;975;48.760;9.152;2023-03-31T10:33:56;16.00;93.10
1950;DHT22;975;48.760;9.152;2023-03-31T10:36:47;16.00;92.80
1950;DHT22;975;48.760;9.152;2023-03-31T10:39:37;16.20;92.70
1950;DHT22;975;48.760;9.152;2023-03-31T10:42:25;16.20;91.90
1950;DHT22;975;48.760;9.152;2023-03-31T10:45:24;16.00;91.30
1950;DHT22;975;48.760;9.152;2023-03-31T10:48:18;16.10;91.50
1950;DHT22;975;48.760;9.152;2023-03-31T10:51:11;16.30;92.20
1950;DHT22;975;48.760;9.152;2023-03-31T10:54:02;16.20;91.00
1950;DHT22;975;48.760;9.152;2023-03-31T10:56:51;16.20;90.60
1950;DHT22;975;48.760;9.152;2023-03-31T10:59:49;16.20;91.00
1950;DHT22;975;48.760;9.152;2023-03-31T11:02:56;16.30;90.10
1950;DHT22;975;48.760;9.152;2023-03-31T11:05:49;16.20;87.80
1950;DHT22;975;48.760;9.152;2023-03-31T11:08:46;16.20;88.40
1950;DHT22;975;48.760;9.152;2023-03-31T11:11:56;16.20;87.70
1950;DHT22;975;48.760;9.152;2023-03-31T11:14:53;16.00;89.20
1950;DHT22;975;48.760;9.152;2023-03-31T11:17:58;15.90;89.40
1950;DHT22;975;48.760;9.152;2023-03-31T11:20:54;15.70;91.50
1950;DHT22;975;48.760;9.152;2023-03-31T14:29:55;15.40;93.50
1950;DHT22;975;48.760;9.152;2023-03-31T14:33:00;13.30;99.90
1950;DHT22;975;48.760;9.152;2023-03-31T14:35:57;12.80;99.90
1950;DHT22;975;48.760;9.152;2023-03-31T14:38:52;12.70;99.90
1950;DHT22;975;48.760;9.152;2023-03-31T14:41:50;12.90;99.90
1950;DHT22;975;48.760;9.152;2023-03-31T14:44:38;13.00;99.90
1950;DHT22;975;48.760;9.152;2023-03-31T14:47:29;13.40;99.90
1950;DHT22;975;48.760;9.152;2023-03-31T14:50:18;13.60;99.90
1950;DHT22;975;48.760;9.152;2023-03-31T14:53:13;13.60;99.90
1950;DHT22;975;48.760;9.152;2023-03-31T14:56:03;13.80;99.90
1950;DHT22;975;48.760;9.152;2023-03-31T14:58:53;13.90;99.90
1950;DHT22;975;48.760;9.152;2023-03-31T15:01:41;14.00;99.90
1950;DHT22;975;48.760;9.152;2023-03-31T15:05:01;14.10;99.90
1950;DHT22;975;48.760;9.152;2023-03-31T15:07:56;14.10;99.90
1950;DHT22;975;48.760;9.152;2023-03-31T15:10:48;14.10;99.90
1950;DHT22;975;48.760;9.152;2023-03-31T15:13:41;14.10;99.90
1950;DHT22;975;48.760;9.152;2023-03-31T15:16:34;14.00;99.70
1950;DHT22;975;48.760;9.152;2023-03-31T15:19:34;13.80;99.90
1950;DHT22;975;48.760;9.152;2023-03-31T15:22:31;13.70;99.90
1950;DHT22;975;48.760;9.152;2023-03-31T15:25:27;13.60;99.90
1950;DHT22;975;48.760;9.152;2023-03-31T15:28:21;13.60;99.90
1950;DHT22;975;48.760;9.152;2023-03-31T15:31:14;13.70;99.90
1950;DHT22;975;48.760;9.152;2023-03-31T15:34:21;13.70;99.90
1950;DHT22;975;48.760;9.152;2023-03-31T15:37:24;13.90;99.90
1950;DHT22;975;48.760;9.152;2023-03-31T15:40:24;14.00;99.80
1950;DHT22;975;48.760;9.152;2023-03-31T15:43:26;14.00;99.50
1950;DHT22;975;48.760;9.152;2023-03-31T15:46:19;14.10;99.70
1950;DHT22;975;48.760;9.152;2023-03-31T15:49:22;13.90;99.50
1950;DHT22;975;48.760;9.152;2023-03-31T15:52:20;13.70;99.20
1950;DHT22;975;48.760;9.152;2023-03-31T15:58:00;13.60;99.20
1950;DHT22;975;48.760;9.152;2023-03-31T16:01:03;13.30;98.90
1950;DHT22;975;48.760;9.152;2023-03-31T16:03:53;13.20;99.30
1950;DHT22;975;48.760;9.152;2023-03-31T16:06:48;13.20;99.00
1950;DHT22;975;48.760;9.152;2023-03-31T16:09:44;13.10;99.30
1950;DHT22;975;48.760;9.152;2023-03-31T16:12:36;13.10;99.20
1950;DHT22;975;48.760;9.152;2023-03-31T16:15:33;13.10;99.20
1950;DHT22;975;48.760;9.152;2023-03-31T16:18:32;12.90;99.20
1950;DHT22;975;48.760;9.152;2023-03-31T16:21:38;12.80;99.40
1950;DHT22;975;48.760;9.152;2023-03-31T16:24:38;12.70;99.30
1950;DHT22;975;48.760;9.152;2023-03-31T16:27:41;12.70;99.60
1950;DHT22;975;48.760;9.152;2023-03-31T16:30:36;12.70;99.50
1950;DHT22;975;48.760;9.152;2023-03-31T16:33:52;12.80;99.60
1950;DHT22;975;48.760;9.152;2023-03-31T16:36:43;12.50;99.70
1950;DHT22;975;48.760;9.152;2023-03-31T16:39:31;12.30;99.90
1950;DHT22;975;48.760;9.152;2023-03-31T16:42:19;12.10;99.90
1950;DHT22;975;48.760;9.152;2023-03-31T16:45:12;11.80;99.90
1950;DHT22;975;48.760;9.152;2023-03-31T16:48:02;11.60;99.90
1950;DHT22;975;48.760;9.152;2023-03-31T16:50:54;11.60;99.90
1950;DHT22;975;48.760;9.152;2023-03-31T16:53:51;11.50;99.90
1950;DHT22;975;48.760;9.152;2023-03-31T16:56:39;11.50;99.90
1950;DHT22;975;48.760;9.152;2023-03-31T16:59:27;11.50;99.90
1950;DHT22;975;48.760;9.152;2023-03-31T17:02:18;11.50;99.90
1950;DHT22;975;48.760;9.152;2023-03-31T17:05:16;11.50;99.90
1950;DHT22;975;48.760;9.152;2023-03-31T17:08:07;11.50;99.90
1950;DHT22;975;48.760;9.152;2023-03-31T17:10:59;11.50;99.90
1950;DHT22;975;48.760;9.152;2023-03-31T17:13:47;11.50;99.90
1950;DHT22;975;48.760;9.152;2023-03-31T17:16:35;11.30;99.90
1950;DHT22;975;48.760;9.152;2023-03-31T17:19:23;11.10;99.90
1950;DHT22;975;48.760;9.152;2023-03-31T17:22:13;11.10;99.90
1950;DHT22;975;48.760;9.152;2023-03-31T17:25:01;11.00;99.90
1950;DHT22;975;48.760;9.152;2023-03-31T17:27:49;11.10;99.90
1950;DHT22;975;48.760;9.152;2023-03-31T17:30:37;11.10;99.90
1950;DHT22;975;48.760;9.152;2023-03-31T17:33:25;11.20;99.90
1950;DHT22;975;48.760;9.152;2023-03-31T17:36:14;11.10;99.90
1950;DHT22;975;48.760;9.152;2023-03-31T17:39:07;11.10;99.90
1950;DHT22;975;48.760;9.152;2023-03-31T17:42:00;11.00;99.90
1950;DHT22;975;48.760;9.152;2023-03-31T17:44:49;11.00;99.90
1950;DHT22;975;48.760;9.152;2023-03-31T17:48:04;11.10;99.90
1950;DHT22;975;48.760;9.152;2023-03-31T17:50:54;11.20;99.90
1950;DHT22;975;48.760;9.152;2023-03-31T17:53:59;11.30;99.90
1950;DHT22;975;48.760;9.152;2023-03-31T17:56:55;11.20;99.90
1950;DHT22;975;48.760;9.152;2023-03-31T17:59:43;11.20;99.90
1950;DHT22;975;48.760;9.152;2023-03-31T18:02:32;11.20;99.90
1950;DHT22;975;48.760;9.152;2023-03-31T18:05:31;11.30;99.90
1950;DHT22;975;48.760;9.152;2023-03-31T18:08:26;11.30;99.90
1950;DHT22;975;48.760;9.152;2023-03-31T18:11:23;11.30;99.90
1950;DHT22;975;48.760;9.152;2023-03-31T18:14:20;11.30;99.90
1950;DHT22;975;48.760;9.152;2023-03-31T18:17:10;11.30;99.90
1950;DHT22;975;48.760;9.152;2023-03-31T18:20:00;11.20;99.90
1950;DHT22;975;48.760;9.152;2023-03-31T18:22:50;11.10;99.90
1950;DHT22;975;48.760;9.152;2023-03-31T18:25:43;11.10;99.90
1950;DHT22;975;48.760;9.152;2023-03-31T18:28:34;11.10;99.90
1950;DHT22;975;48.760;9.152;2023-03-31T18:31:34;11.10;99.90
1950;DHT22;975;48.760;9.152;2023-03-31T18:34:25;11.20;99.90
1950;DHT22;975;48.760;9.152;2023-03-31T18:37:18;11.20;99.90
1950;DHT22;975;48.760;9.152;2023-03-31T18:40:12;11.20;99.90
1950;DHT22;975;48.760;9.152;2023-03-31T18:43:10;11.10;99.90
1950;DHT22;975;48.760;9.152;2023-03-31T18:46:06;11.00;99.90
1950;DHT22;975;48.760;9.152;2023-03-31T18:49:09;10.90;99.90
1950;DHT22;975;48.760;9.152;2023-03-31T18:51:58;10.70;99.90
1950;DHT22;975;48.760;9.152;2023-03-31T18:54:55;10.60;99.90
1950;DHT22;975;48.760;9.152;2023-03-31T18:57:53;10.60;99.90
1950;DHT22;975;48.760;9.152;2023-03-31T19:00:48;10.50;99.90
1950;DHT22;975;48.760;9.152;2023-03-31T19:03:39;10.50;99.90
1950;DHT22;975;48.760;9.152;2023-03-31T19:06:51;10.50;99.90
1950;DHT22;975;48.760;9.152;2023-03-31T19:09:55;10.50;99.90
1950;DHT22;975;48.760;9.152;2023-03-31T19:12:49;10.50;99.90
1950;DHT22;975;48.760;9.152;2023-03-31T19:15:43;10.40;99.90
1950;DHT22;975;48.760;9.152;2023-03-31T19:18:45;10.40;99.90
1950;DHT22;975;48.760;9.152;2023-03-31T19:21:35;10.40;99.90
1950;DHT22;975;48.760;9.152;2023-03-31T19:24:33;10.40;99.90
1950;DHT22;975;48.760;9.152;2023-03-31T19:27:46;10.30;99.90
1950;DHT22;975;48.760;9.152;2023-03-31T19:30:48;10.40;99.90
1950;DHT22;975;48.760;9.152;2023-03-31T19:33:44;10.40;99.90
1950;DHT22;975;48.760;9.152;2023-03-31T19:36:39;10.50;99.90
1950;DHT22;975;48.760;9.152;2023-03-31T19:39:48;10.40;99.90
1950;DHT22;975;48.760;9.152;2023-03-31T19:42:51;10.50;99.90
1950;DHT22;975;48.760;9.152;2023-03-31T19:45:44;10.40;99.90
1950;DHT22;975;48.760;9.152;2023-03-31T19:48:42;10.40;99.90
1950;DHT22;975;48.760;9.152;2023-03-31T19:51:40;10.40;99.90
1950;DHT22;975;48.760;9.152;2023-03-31T19:54:36;10.50;99.90
1950;DHT22;975;48.760;9.152;2023-03-31T19:57:33;10.60;99.90
1950;DHT22;975;48.760;9.152;2023-03-31T20:00:27;10.50;99.90
1950;DHT22;975;48.760;9.152;2023-03-31T20:03:20;10.50;99.90
1950;DHT22;975;48.760;9.152;2023-03-31T20:06:22;10.50;99.90
1950;DHT22;975;48.760;9.152;2023-03-31T20:09:22;10.40;99.90
1950;DHT22;975;48.760;9.152;2023-03-31T20:12:13;10.40;99.90
1950;DHT22;975;48.760;9.152;2023-03-31T20:15:08;10.40;99.90
1950;DHT22;975;48.760;9.152;2023-03-31T20:17:59;10.40;99.90
1950;DHT22;975;48.760;9.152;2023-03-31T20:21:12;10.50;99.90
1950;DHT22;975;48.760;9.152;2023-03-31T20:24:09;10.50;99.90
1950;DHT22;975;48.760;9.152;2023-03-31T20:27:01;10.60;99.90
1950;DHT22;975;48.760;9.152;2023-03-31T20:30:04;10.60;99.90
1950;DHT22;975;48.760;9.152;2023-03-31T20:32:53;10.60;99.90
1950;DHT22;975;48.760;9.152;2023-03-31T20:35:41;10.50;99.90
1950;DHT22;975;48.760;9.152;2023-03-31T20:38:29;10.50;99.90
1950;DHT22;975;48.760;9.152;2023-03-31T20:41:18;10.40;99.90
1950;DHT22;975;48.760;9.152;2023-03-31T20:44:07;10.30;99.90
1950;DHT22;975;48.760;9.152;2023-03-31T20:47:00;10.30;99.90
1950;DHT22;975;48.760;9.152;2023-03-31T20:49:48;10.30;99.90
1950;DHT22;975;48.760;9.152;2023-03-31T20:52:36;10.40;99.90
1950;DHT22;975;48.760;9.152;2023-03-31T20:55:24;10.40;99.90
1950;DHT22;975;48.760;9.152;2023-03-31T20:58:22;10.40;99.90
1950;DHT22;975;48.760;9.152;2023-03-31T21:01:39;10.40;99.90
1950;DHT22;975;48.760;9.152;2023-03-31T21:04:37;10.40;99.90
1950;DHT22;975;48.760;9.152;2023-03-31T21:07:33;10.40;99.90
1950;DHT22;975;48.760;9.152;2023-03-31T21:10:24;10.50;99.90
1950;DHT22;975;48.760;9.152;2023-03-31T21:13:13;10.50;99.90
1950;DHT22;975;48.760;9.152;2023-03-31T21:16:01;10.40;99.90
1950;DHT22;975;48.760;9.152;2023-03-31T21:18:49;10.40;99.90
1950;DHT22;975;48.760;9.152;2023-03-31T21:21:40;10.40;99.90
1950;DHT22;975;48.760;9.152;2023-03-31T21:24:44;10.40;99.90
1950;DHT22;975;48.760;9.152;2023-03-31T21:27:42;10.40;99.90
1950;DHT22;975;48.760;9.152;2023-03-31T21:30:29;10.50;99.90
1950;DHT22;975;48.760;9.152;2023-03-31T21:33:17;10.40;99.90
1950;DHT22;975;48.760;9.152;2023-03-31T21:36:06;10.50;99.90
1950;DHT22;975;48.760;9.152;2023-03-31T21:38:55;10.50;99.90
1950;DHT22;975;48.760;9.152;2023-03-31T21:41:44;10.50;99.90
1950;DHT22;975;48.760;9.152;2023-03-31T21:44:52;10.40;99.90
1950;DHT22;975;48.760;9.152;2023-03-31T21:48:00;10.40;99.90
1950;DHT22;975;48.760;9.152;2023-03-31T21:51:06;10.30;99.90
1950;DHT22;975;48.760;9.152;2023-03-31T21:54:18;10.40;99.90
1950;DHT22;975;48.760;9.152;2023-03-31T21:57:35;10.30;99.90
1950;DHT22;975;48.760;9.152;2023-03-31T22:00:46;10.20;99.90
1950;DHT22;975;48.760;9.152;2023-03-31T22:03:52;10.10;99.90
1950;DHT22;975;48.760;9.152;2023-03-31T22:06:56;10.00;99.90
1950;DHT22;975;48.760;9.152;2023-03-31T22:09:52;10.10;99.90
1950;DHT22;975;48.760;9.152;2023-03-31T22:13:14;9.90;99.90
1950;DHT22;975;48.760;9.152;2023-03-31T22:16:25;9.70;99.90
1950;DHT22;975;48.760;9.152;2023-03-31T22:19:22;9.60;99.90
1950;DHT22;975;48.760;9.152;2023-03-31T22:22:26;9.60;99.90
1950;DHT22;975;48.760;9.152;2023-03-31T22:25:36;9.50;99.90
1950;DHT22;975;48.760;9.152;2023-03-31T22:28:42;9.60;99.90
1950;DHT22;975;48.760;9.152;2023-03-31T22:31:41;9.60;99.90
1950;DHT22;975;48.760;9.152;2023-03-31T22:35:01;9.60;99.90
1950;DHT22;975;48.760;9.152;2023-03-31T22:38:10;9.80;99.90
1950;DHT22;975;48.760;9.152;2023-03-31T22:41:08;9.60;99.90
1950;DHT22;975;48.760;9.152;2023-03-31T22:44:20;9.60;99.90
1950;DHT22;975;48.760;9.152;2023-03-31T22:47:32;9.50;99.90
1950;DHT22;975;48.760;9.152;2023-03-31T22:50:28;9.50;99.90
1950;DHT22;975;48.760;9.152;2023-03-31T22:53:18;9.60;99.90
1950;DHT22;975;48.760;9.152;2023-03-31T22:56:18;9.60;99.90
1950;DHT22;975;48.760;9.152;2023-03-31T23:02:25;9.60;99.90
1950;DHT22;975;48.760;9.152;2023-03-31T23:05:27;9.60;99.90
1950;DHT22;975;48.760;9.152;2023-03-31T23:08:26;9.60;99.90
1950;DHT22;975;48.760;9.152;2023-03-31T23:11:39;9.50;99.90
1950;DHT22;975;48.760;9.152;2023-03-31T23:14:35;9.50;99.90
1950;DHT22;975;48.760;9.152;2023-03-31T23:17:40;9.60;99.90
1950;DHT22;975;48.760;9.152;2023-03-31T23:20:42;9.60;99.90
1950;DHT22;975;48.760;9.152;2023-03-31T23:23:31;9.70;99.90
1950;DHT22;975;48.760;9.152;2023-03-31T23:26:28;9.70;99.90
1950;DHT22;975;48.760;9.152;2023-03-31T23:29:21;9.70;99.90
1950;DHT22;975;48.760;9.152;2023-03-31T23:32:15;9.60;99.90
1950;DHT22;975;48.760;9.152;2023-03-31T23:35:17;9.60;99.90
1950;DHT22;975;48.760;9.152;2023-03-31T23:38:14;9.60;99.90
1950;DHT22;975;48.760;9.152;2023-03-31T23:41:18;9.60;99.90
1950;DHT22;975;48.760;9.152;2023-03-31T23:44:25;9.70;99.90
1950;DHT22;975;48.760;9.152;2023-03-31T23:47:24;9.60;99.90
1950;DHT22;975;48.760;9.152;2023-03-31T23:50:23;9.50;99.90
1950;DHT22;975;48.760;9.152;2023-03-31T23:53:19;9.50;99.90
1950;DHT22;975;48.760;9.152;2023-03-31T23:56:14;9.50;99.90
1950;DHT22;975;48.760;9.152;2023-03-31T23:59:14;9.60;99.90
